Airports Greece Mikonos Airport

Mikonos Airport (LGMK / JMK)

Facts about Mikonos Airport

Name Mikonos Airport
City Mykonos
Country Greece
ICAO code LGMK
IATA code JMK
Elevation 123.4440 meters (405 feet)

Weather

METAR

Metar data retrieved Saturday, 20 July 2024 at 00:55 UTC (17 minutes ago)

LGMK 192350Z 03017KT CAVOK 26/21 Q1005

Live traffic

Navigraph Charts (account required)